Time;durP1;ratioP1;P1;durP2;ratioP2;P2;SDS_P1;SDS_P2;PMS_P1;PMS_P2;Temp;Humidity;BMP_temperature;BMP_pressure;BME280_temperature;BME280_humidity;BME280_pressure;Samples;Min_cycle;Max_cycle;Signal;HPM_P1;HPM_P2
2021/12/25 00:00:50;;;;;;;;;62.50;48.50;;;;;7.70;97.38;99896.75;6241976;22;45382;-73
2021/12/25 00:03:16;;;;;;;;;55.50;46.00;;;;;7.45;96.99;99863.88;6242061;22;45346;-73
2021/12/25 00:05:44;;;;;;;;;59.50;41.25;;;;;7.57;97.53;99884.25;6241630;22;45335;-72
2021/12/25 00:08:10;;;;;;;;;53.75;41.25;;;;;7.46;96.96;99862.09;6240864;22;47182;-72
2021/12/25 00:10:35;;;;;;;;;56.00;44.50;;;;;7.63;96.92;99892.72;6241338;22;45492;-73
2021/12/25 00:13:01;;;;;;;;;56.50;44.00;;;;;7.33;97.33;99852.19;6241248;22;45390;-73
2021/12/25 00:15:26;;;;;;;;;52.25;42.75;;;;;7.67;97.23;99907.34;6241576;22;45248;-72
2021/12/25 00:17:52;;;;;;;;;57.75;43.50;;;;;7.68;97.24;99906.44;6241773;22;45946;-73
2021/12/25 00:20:18;;;;;;;;;54.00;41.50;;;;;7.68;97.11;99898.59;6241575;22;45355;-73
2021/12/25 00:22:43;;;;;;;;;55.50;44.50;;;;;7.69;97.29;99902.88;6244108;22;45470;-72
2021/12/25 00:25:09;;;;;;;;;53.75;38.75;;;;;7.69;97.23;99901.16;6246170;22;45199;-73
2021/12/25 00:32:43;;;;;;;;;52.25;40.00;;;;;7.72;96.90;99905.38;6241906;22;45257;-73
2021/12/25 00:35:09;;;;;;;;;50.75;40.50;;;;;7.73;97.30;99899.25;6241058;22;45365;-73
2021/12/25 00:37:34;;;;;;;;;47.50;38.25;;;;;7.65;97.20;99883.91;6241243;22;45244;-73
2021/12/25 00:40:00;;;;;;;;;43.25;38.00;;;;;7.74;96.99;99893.94;6241988;22;45174;-73
2021/12/25 00:42:25;;;;;;;;;48.75;39.25;;;;;7.75;97.26;99895.66;6214206;22;45266;-73
2021/12/25 00:44:51;;;;;;;;;42.25;38.50;;;;;7.60;97.17;99870.19;6214131;22;45363;-73
2021/12/25 00:47:16;;;;;;;;;54.25;40.00;;;;;7.59;96.87;99861.53;6241896;22;45288;-74
2021/12/25 00:49:42;;;;;;;;;65.75;52.00;;;;;7.78;97.82;99895.53;6241240;22;45263;-73
2021/12/25 00:52:08;;;;;;;;;48.75;41.00;;;;;7.79;96.96;99893.75;6241358;22;45246;-73
2021/12/25 00:54:34;;;;;;;;;51.00;39.25;;;;;7.80;97.31;99898.91;6241616;22;45351;-73
2021/12/25 00:56:59;;;;;;;;;53.00;41.00;;;;;7.81;97.15;99894.53;6241246;22;45310;-72
2021/12/25 00:59:25;;;;;;;;;47.25;37.75;;;;;7.84;97.29;99899.63;6241338;22;45391;-73
2021/12/25 01:01:50;;;;;;;;;49.75;40.75;;;;;7.76;97.82;99886.03;6241719;22;45169;-72
2021/12/25 01:04:16;;;;;;;;;47.50;36.75;;;;;7.63;97.04;99859.63;6241237;22;45467;-73
2021/12/25 01:06:41;;;;;;;;;40.25;37.75;;;;;7.53;96.92;99838.31;6240872;22;45368;-72
2021/12/25 01:09:07;;;;;;;;;44.50;35.75;;;;;7.75;96.61;99884.34;6241610;22;45328;-72
2021/12/25 01:11:35;;;;;;;;;48.50;39.25;;;;;7.81;96.76;99902.34;6241199;22;45334;-73
2021/12/25 01:14:21;;;;;;;;;53.00;40.50;;;;;7.74;97.18;99880.88;6241421;22;45315;-73
2021/12/25 01:20:26;;;;;;;;;49.50;38.00;;;;;7.69;97.41;99871.56;6240781;22;45294;-73
2021/12/25 01:47:45;;;;;;;;;48.75;37.50;;;;;7.91;98.25;99884.53;6242642;22;45478;-74
2021/12/25 01:50:09;;;;;;;;;53.00;38.75;;;;;7.51;97.31;99816.63;6242440;22;45368;-74
2021/12/25 01:52:35;;;;;;;;;40.25;38.00;;;;;7.84;97.29;99870.88;6214831;22;45549;-74
2021/12/25 01:55:08;;;;;;;;;45.00;38.75;;;;;7.92;97.61;99888.81;6242696;22;45232;-74
2021/12/25 01:57:34;;;;;;;;;54.00;41.00;;;;;8.02;97.55;99897.13;6242290;22;45438;-74
2021/12/25 02:00:00;;;;;;;;;47.25;38.00;;;;;7.82;97.59;99872.72;6242876;22;45280;-74
2021/12/25 02:02:27;;;;;;;;;52.75;40.50;;;;;7.97;97.24;99892.09;6242211;22;45316;-74
2021/12/25 02:04:53;;;;;;;;;50.50;36.50;;;;;7.96;97.20;99885.19;6242757;22;45351;-73
2021/12/25 02:07:19;;;;;;;;;29.25;24.75;;;;;8.04;96.76;99906.56;6242205;22;46078;-74
2021/12/25 02:09:45;;;;;;;;;37.25;35.00;;;;;7.69;97.43;99854.16;6242276;22;45315;-74
2021/12/25 02:12:11;;;;;;;;;53.25;37.75;;;;;7.92;97.22;99884.47;6242223;22;45396;-74
2021/12/25 02:14:41;;;;;;;;;38.00;33.50;;;;;8.09;97.52;99908.97;6242788;22;45371;-74
2021/12/25 02:17:45;;;;;;;;;43.75;32.00;;;;;7.87;97.15;99877.72;6241682;22;45256;-75
2021/12/25 02:20:27;;;;;;;;;36.00;32.50;;;;;8.11;97.50;99907.97;6241634;22;45302;-74
2021/12/25 02:23:00;;;;;;;;;44.00;38.50;;;;;8.13;97.14;99915.75;6243251;22;45397;-73
2021/12/25 02:25:27;;;;;;;;;44.25;35.00;;;;;8.07;97.13;99908.22;6243243;22;45321;-74
2021/12/25 02:27:52;;;;;;;;;42.00;36.33;;;;;7.79;96.81;99860.63;6243919;22;45423;-74
2021/12/25 02:30:18;;;;;;;;;41.67;36.67;;;;;8.04;97.10;99900.50;6244250;22;45388;-74
2021/12/25 02:32:44;;;;;;;;;50.00;35.67;;;;;7.98;97.34;99888.56;6242526;22;45390;-74
2021/12/25 02:35:11;;;;;;;;;40.00;36.33;;;;;8.15;97.46;99917.41;6242129;22;45409;-74
2021/12/25 02:37:36;;;;;;;;;39.25;34.00;;;;;7.69;97.00;99829.78;6240911;22;45374;-74
2021/12/25 02:40:03;;;;;;;;;45.25;35.75;;;;;8.15;97.13;99912.19;6241945;22;45130;-74
2021/12/25 02:42:28;;;;;;;;;40.00;34.25;;;;;7.49;97.19;99808.00;6242993;22;45357;-74
2021/12/25 02:44:53;;;;;;;;;49.25;38.75;;;;;8.06;97.32;99896.06;6242369;22;45288;-75
2021/12/25 02:47:21;;;;;;;;;39.67;35.00;;;;;7.97;97.13;99885.09;6215204;22;46006;-74
2021/12/25 02:49:54;;;;;;;;;39.33;37.33;;;;;8.18;97.49;99909.41;6241974;22;45307;-73
2021/12/25 02:52:19;;;;;;;;;39.75;34.50;;;;;8.20;97.38;99911.94;6214914;22;45262;-73
2021/12/25 02:54:45;;;;;;;;;44.33;37.00;;;;;7.88;97.47;99861.16;6242214;22;45252;-74
2021/12/25 02:57:11;;;;;;;;;35.67;33.33;;;;;8.01;97.73;99867.50;6242472;22;45229;-73
2021/12/25 02:59:37;;;;;;;;;41.50;38.00;;;;;8.07;97.13;99884.69;6241585;22;45362;-74
2021/12/25 03:02:07;;;;;;;;;38.00;35.25;;;;;8.21;97.56;99907.56;6242512;22;45240;-74
2021/12/25 03:04:35;;;;;;;;;40.50;35.25;;;;;8.14;97.58;99891.34;6242706;22;45172;-74
2021/12/25 03:07:00;;;;;;;;;48.00;37.75;;;;;8.13;98.47;99897.47;6241639;22;46151;-73
2021/12/25 03:09:25;;;;;;;;;47.00;36.25;;;;;7.93;99.23;99862.63;6241804;22;45370;-73
2021/12/25 03:11:52;;;;;;;;;37.00;33.75;;;;;7.68;99.54;99813.28;6215543;22;45344;-74
2021/12/25 03:14:33;;;;;;;;;38.50;33.50;;;;;8.04;100.00;99882.22;6242626;22;45248;-74
2021/12/25 03:16:58;;;;;;;;;43.00;35.00;;;;;8.00;99.90;99877.13;6241307;22;45558;-75
2021/12/25 03:19:31;;;;;;;;;38.00;32.25;;;;;8.12;100.00;99907.09;6242327;22;45354;-75
2021/12/25 03:21:57;;;;;;;;;41.67;33.67;;;;;8.14;100.00;99912.25;6241792;22;45382;-75
2021/12/25 03:24:23;;;;;;;;;38.67;32.67;;;;;7.93;100.00;99880.09;6214357;22;45911;-74
2021/12/25 03:26:52;;;;;;;;;36.00;30.00;;;;;8.14;100.00;99909.63;6242173;22;45406;-74
2021/12/25 03:29:17;;;;;;;;;39.25;34.25;;;;;8.16;100.00;99905.19;6242231;22;45362;-75
2021/12/25 03:31:44;;;;;;;;;46.00;35.25;;;;;8.17;100.00;99910.34;6242300;22;45417;-75
2021/12/25 03:34:10;;;;;;;;;37.75;34.75;;;;;8.18;99.94;99911.19;6214679;22;45312;-75
2021/12/25 03:36:35;;;;;;;;;49.25;39.00;;;;;7.85;99.46;99856.06;6241794;22;45861;-75
2021/12/25 03:39:01;;;;;;;;;48.75;35.75;;;;;7.91;99.47;99874.09;6241668;22;45322;-76
2021/12/25 03:41:27;;;;;;;;;41.75;37.50;;;;;8.17;99.18;99918.19;6241882;22;45249;-75
2021/12/25 03:43:52;;;;;;;;;37.50;35.25;;;;;8.17;99.33;99928.63;6242368;22;45301;-76
2021/12/25 03:46:18;;;;;;;;;43.75;34.75;;;;;8.17;99.55;99923.41;6214809;22;46417;-75
2021/12/25 03:49:03;;;;;;;;;36.67;32.67;;;;;8.16;99.57;99924.31;6241897;22;45307;-77
2021/12/25 03:59:47;;;;;;;;;40.75;33.00;;;;;8.06;99.34;99916.94;6241499;22;45317;-74
2021/12/25 04:02:19;;;;;;;;;36.67;34.33;;;;;8.12;99.29;99930.59;6242138;22;45392;-76
2021/12/25 04:04:47;;;;;;;;;38.33;35.00;;;;;8.13;99.15;99936.66;6241290;22;45507;-77
2021/12/25 04:07:34;;;;;;;;;41.33;34.67;;;;;7.95;99.34;99899.13;6240742;22;46136;-77
2021/12/25 04:10:02;;;;;;;;;52.25;36.00;;;;;7.71;99.30;99861.88;6241100;22;45455;-77
2021/12/25 04:12:28;;;;;;;;;38.33;33.00;;;;;8.12;99.43;99934.97;6242170;22;45217;-77
2021/12/25 04:14:53;;;;;;;;;44.33;34.33;;;;;8.12;99.35;99921.91;6214705;22;45379;-77
2021/12/25 04:17:19;;;;;;;;;51.00;36.67;;;;;8.10;99.14;99921.97;6214795;22;46065;-77
2021/12/25 04:19:44;;;;;;;;;38.67;33.67;;;;;7.27;98.59;99792.44;6214807;22;45434;-77
2021/12/25 04:22:16;;;;;;;;;35.00;31.00;;;;;8.04;98.59;99924.84;6242701;22;45221;-78
2021/12/25 04:24:44;;;;;;;;;34.67;32.33;;;;;7.77;98.66;99883.38;6243174;22;45356;-78
2021/12/25 04:27:13;;;;;;;;;35.00;30.67;;;;;8.02;98.87;99934.53;6246553;22;46231;-77
2021/12/25 04:30:03;;;;;;;;;32.67;29.00;;;;;7.99;98.96;99927.69;6262340;22;45264;-77
2021/12/25 05:04:57;;;;;;;;;43.00;34.67;;;;;7.88;98.58;99960.41;6180985;23;45384;-77
2021/12/25 05:07:22;;;;;;;;;30.33;29.67;;;;;7.64;98.79;99923.13;6182532;23;45367;-78
2021/12/25 05:09:48;;;;;;;;;31.67;26.33;;;;;7.64;98.50;99920.50;6181288;23;45679;-78
2021/12/25 05:12:14;;;;;;;;;32.67;32.00;;;;;7.70;98.63;99941.16;6182591;23;45359;-78
2021/12/25 05:14:39;;;;;;;;;30.00;28.67;;;;;7.85;98.29;99963.97;6157115;23;45411;-77
2021/12/25 05:17:07;;;;;;;;;34.00;30.33;;;;;7.86;98.66;99965.69;6181386;23;45333;-77
2021/12/25 05:19:33;;;;;;;;;38.33;30.00;;;;;7.87;98.90;99972.63;6179945;23;45324;-77
2021/12/25 05:21:58;;;;;;;;;29.33;26.67;;;;;7.37;98.67;99894.66;6179349;23;45365;-77
2021/12/25 05:24:23;;;;;;;;;29.00;25.67;;;;;7.88;98.60;99981.28;6180287;23;45458;-77
2021/12/25 05:26:49;;;;;;;;;34.33;28.67;;;;;7.86;97.97;99968.31;6179987;23;45444;-77
2021/12/25 05:29:22;;;;;;;;;31.00;26.33;;;;;7.84;98.30;99975.34;6154755;23;45385;-77
2021/12/25 05:31:48;;;;;;;;;34.00;29.00;;;;;7.83;98.21;99973.66;6154247;23;45282;-76
2021/12/25 05:34:13;;;;;;;;;35.33;27.00;;;;;7.83;98.49;99984.09;6224879;22;45241;-77
2021/12/25 05:36:39;;;;;;;;;26.67;23.67;;;;;7.72;98.22;99963.66;6243577;22;45388;-77
2021/12/25 05:39:08;;;;;;;;;27.33;27.00;;;;;7.83;98.42;99984.09;6243343;22;45380;-76
2021/12/25 05:41:34;;;;;;;;;29.67;27.33;;;;;7.01;98.20;99854.38;6242994;22;45377;-76
2021/12/25 05:43:59;;;;;;;;;27.00;22.67;;;;;7.80;98.16;99992.91;6242415;22;45450;-76
2021/12/25 05:46:25;;;;;;;;;26.33;23.67;;;;;7.68;98.39;99971.72;6242857;22;45309;-76
2021/12/25 05:48:50;;;;;;;;;24.33;22.33;;;;;7.81;98.45;99985.94;6216101;22;46183;-77
2021/12/25 05:51:17;;;;;;;;;25.67;24.00;;;;;7.58;98.47;99950.34;6243000;22;45315;-76
2021/12/25 05:53:43;;;;;;;;;30.67;25.67;;;;;7.79;98.56;99988.59;6243154;22;45283;-77
2021/12/25 05:56:09;;;;;;;;;22.00;22.00;;;;;6.90;98.17;99845.31;6242684;22;45354;-78
2021/12/25 05:58:34;;;;;;;;;28.00;26.00;;;;;7.75;98.32;99987.03;6214815;22;45929;-77
2021/12/25 06:01:00;;;;;;;;;29.33;26.67;;;;;7.76;98.37;99991.38;6242367;22;45121;-77
2021/12/25 06:03:26;;;;;;;;;30.00;23.67;;;;;7.49;98.09;99953.34;6243577;22;45292;-77
2021/12/25 06:05:51;;;;;;;;;28.00;26.00;;;;;7.09;97.96;99895.81;6216786;22;45309;-76
2021/12/25 06:08:17;;;;;;;;;21.33;19.00;;;;;7.71;98.36;99998.53;6215074;22;47362;-76
2021/12/25 06:10:43;;;;;;;;;25.67;23.67;;;;;7.73;98.69;99996.72;6242370;22;45240;-77
2021/12/25 06:13:15;;;;;;;;;34.33;27.00;;;;;7.71;98.23;100006.38;6242702;22;45255;-76
2021/12/25 06:15:42;;;;;;;;;25.00;21.67;;;;;7.29;97.85;99944.56;6241946;22;45512;-77
2021/12/25 06:18:09;;;;;;;;;30.33;24.67;;;;;7.57;98.35;99993.03;6242791;22;45985;-77
2021/12/25 06:20:34;;;;;;;;;27.67;24.67;;;;;7.57;98.03;99995.66;6243048;22;45298;-76
2021/12/25 06:23:00;;;;;;;;;26.67;25.33;;;;;7.68;98.55;100010.88;6244189;22;45208;-77
2021/12/25 06:25:25;;;;;;;;;26.00;20.67;;;;;7.23;98.36;99940.47;6216226;22;45408;-77
2021/12/25 06:27:50;;;;;;;;;21.67;20.67;;;;;7.57;98.27;99998.25;6246388;22;46003;-79
2021/12/25 06:30:16;;;;;;;;;25.33;22.67;;;;;7.55;98.06;100003.53;6256957;22;45212;-77
2021/12/25 06:32:41;;;;;;;;;26.00;21.33;;;;;7.67;97.87;100027.44;6257020;22;45590;-77
2021/12/25 06:35:07;;;;;;;;;25.33;21.00;;;;;7.67;98.44;100033.50;6257177;22;45228;-78
2021/12/25 06:37:32;;;;;;;;;24.67;21.00;;;;;7.69;98.34;100041.28;6251190;22;45296;-77
2021/12/25 06:39:58;;;;;;;;;24.33;22.67;;;;;7.27;98.50;99977.72;6244858;22;45410;-79
2021/12/25 06:42:24;;;;;;;;;26.00;23.00;;;;;7.36;97.83;99990.38;6243477;22;45363;-80
2021/12/25 06:44:49;;;;;;;;;29.67;29.00;;;;;7.32;97.99;99981.00;6243104;22;45335;-79
2021/12/25 06:47:15;;;;;;;;;27.67;26.33;;;;;7.66;97.62;100034.44;6243623;22;45501;-79
2021/12/25 06:49:41;;;;;;;;;22.00;18.33;;;;;7.64;97.79;100035.38;6243160;22;45280;-76
2021/12/25 06:52:06;;;;;;;;;25.33;21.67;;;;;6.78;97.62;99893.59;6242366;22;45343;-78
2021/12/25 06:54:32;;;;;;;;;20.67;20.67;;;;;7.41;97.25;100001.50;6216167;22;45216;-80
2021/12/25 06:56:58;;;;;;;;;32.00;24.33;;;;;7.51;98.05;100029.81;6214944;22;46932;-78
2021/12/25 06:59:23;;;;;;;;;23.00;23.00;;;;;7.48;98.11;100036.03;6242549;22;45182;-84
2021/12/25 07:01:50;;;;;;;;;28.67;21.33;;;;;7.42;98.51;100031.03;6243036;22;45283;-78
2021/12/25 07:04:16;;;;;;;;;26.00;25.67;;;;;7.50;98.01;100047.25;6242911;22;45376;-77
2021/12/25 07:06:42;;;;;;;;;26.00;21.33;;;;;7.38;97.43;100021.66;6242568;22;45922;-79
2021/12/25 07:09:08;;;;;;;;;26.67;25.33;;;;;7.37;98.19;100026.03;6242604;22;45280;-79
2021/12/25 07:11:35;;;;;;;;;26.33;25.33;;;;;7.50;98.68;100055.09;6242747;22;45363;-78
2021/12/25 07:14:03;;;;;;;;;34.67;31.00;;;;;7.51;98.32;100061.16;6242487;22;45439;-78
2021/12/25 07:16:29;;;;;;;;;22.00;17.67;;;;;7.39;98.03;100036.38;6214950;22;46370;-79
2021/12/25 07:18:55;;;;;;;;;25.00;21.00;;;;;7.52;98.18;100061.09;6242310;22;45386;-78
2021/12/25 07:21:21;;;;;;;;;29.00;23.00;;;;;7.16;97.96;99992.94;6242744;22;45293;-78
2021/12/25 07:23:46;;;;;;;;;25.33;23.33;;;;;7.51;98.50;100062.00;6242068;22;45391;-79
2021/12/25 07:26:12;;;;;;;;;28.67;23.33;;;;;7.40;98.20;100038.94;6242284;22;45457;-79
2021/12/25 07:28:38;;;;;;;;;31.67;25.00;;;;;7.50;97.67;100064.69;6214928;22;45874;-79
2021/12/25 07:31:04;;;;;;;;;27.67;25.67;;;;;7.34;97.88;100046.16;6242586;22;45309;-79
2021/12/25 07:33:32;;;;;;;;;30.33;25.33;;;;;7.24;97.82;100032.63;6242761;22;45300;-78
2021/12/25 07:35:58;;;;;;;;;27.33;23.67;;;;;7.49;98.08;100074.25;6242350;22;46106;-79
2021/12/25 07:38:25;;;;;;;;;26.67;24.33;;;;;7.29;97.84;100048.94;6242645;22;45256;-80
2021/12/25 07:40:50;;;;;;;;;29.33;25.67;;;;;7.39;97.73;100073.78;6242510;22;45444;-79
2021/12/25 07:43:17;;;;;;;;;26.33;23.67;;;;;6.79;98.22;99982.19;6241808;22;45323;-79
2021/12/25 07:45:46;;;;;;;;;25.33;21.33;;;;;6.89;97.28;100000.06;6242674;22;45971;-78
2021/12/25 07:48:11;;;;;;;;;27.33;24.00;;;;;7.34;97.78;100074.88;6242508;22;45283;-79
2021/12/25 07:50:36;;;;;;;;;19.00;16.67;;;;;7.00;97.25;100030.06;6242384;22;45408;-78
2021/12/25 07:53:02;;;;;;;;;19.00;15.00;;;;;7.28;97.46;100082.94;6214624;22;45706;-78
2021/12/25 07:55:32;;;;;;;;;16.67;15.00;;;;;7.43;97.37;100105.84;6242398;22;45488;-78
2021/12/25 07:58:01;;;;;;;;;19.67;16.67;;;;;7.42;97.36;100109.34;6242485;22;45434;-77
2021/12/25 08:00:27;;;;;;;;;13.67;12.67;;;;;7.37;96.58;100112.16;6242540;22;45337;-76
2021/12/25 08:02:53;;;;;;;;;14.00;14.00;;;;;7.37;97.16;100114.75;6240133;22;45431;-78
2021/12/25 08:05:20;;;;;;;;;23.00;18.33;;;;;7.36;97.26;100117.41;6215796;22;48255;-78
2021/12/25 08:07:46;;;;;;;;;13.33;13.33;;;;;7.32;96.75;100116.69;6214777;22;45319;-82
2021/12/25 08:10:14;;;;;;;;;19.67;17.33;;;;;7.31;96.29;100120.19;6242473;22;45380;-80
2021/12/25 08:12:43;;;;;;;;;16.33;11.33;;;;;7.17;96.46;100096.38;6243174;22;45401;-81
2021/12/25 08:15:09;;;;;;;;;21.67;18.33;;;;;7.23;96.05;100110.06;6242479;22;45394;-79
2021/12/25 08:17:34;;;;;;;;;18.33;18.00;;;;;7.21;95.71;100111.88;6242841;22;45328;-83
2021/12/25 08:20:00;;;;;;;;;18.00;18.00;;;;;7.20;96.21;100118.00;6241979;22;45422;-84
2021/12/25 08:22:25;;;;;;;;;17.67;14.67;;;;;7.02;96.17;100096.06;6215458;22;45356;-81
2021/12/25 08:24:51;;;;;;;;;14.33;13.00;;;;;7.14;95.43;100123.47;6243416;22;45816;-86
2021/12/25 08:27:17;;;;;;;;;18.33;18.33;;;;;7.14;95.47;100123.47;6243435;22;45336;-77
2021/12/25 08:29:43;;;;;;;;;21.00;19.67;;;;;7.01;95.43;100106.53;6248966;22;45328;-79
2021/12/25 08:32:08;;;;;;;;;22.67;18.33;;;;;7.13;96.40;100126.97;6234515;22;45205;-81
2021/12/25 08:34:34;;;;;;;;;20.33;19.00;;;;;7.13;94.99;100136.56;6236511;22;47087;-79
2021/12/25 08:36:59;;;;;;;;;22.00;18.33;;;;;6.91;95.70;100090.41;6253358;22;45255;-76
2021/12/25 08:39:25;;;;;;;;;14.33;14.33;;;;;7.11;95.09;100123.56;6243919;22;45550;-79
2021/12/25 08:41:50;;;;;;;;;28.67;20.67;;;;;7.12;95.53;100127.84;6243977;22;45233;-78
2021/12/25 08:44:32;;;;;;;;;24.00;22.67;;;;;6.89;95.13;100094.81;6244144;22;45261;-74
2021/12/25 08:46:59;;;;;;;;;23.00;21.33;;;;;7.12;95.34;100133.06;6243629;22;45385;-77
2021/12/25 08:49:29;;;;;;;;;21.00;17.67;;;;;6.87;95.69;100094.00;6243467;22;45394;-73
2021/12/25 08:51:56;;;;;;;;;21.00;17.67;;;;;7.10;95.86;100134.06;6243050;22;45259;-72
2021/12/25 08:54:22;;;;;;;;;22.00;17.67;;;;;6.98;94.51;100122.31;6243034;22;46134;-72
2021/12/25 08:56:47;;;;;;;;;23.33;17.33;;;;;7.06;95.04;100143.75;6242502;22;45292;-73
2021/12/25 08:59:13;;;;;;;;;19.67;19.67;;;;;6.99;94.91;100118.81;6242595;22;45391;-74
2021/12/25 09:01:38;;;;;;;;;17.00;16.33;;;;;7.17;94.82;100149.41;6241883;22;45297;-74
2021/12/25 09:04:04;;;;;;;;;20.33;17.00;;;;;7.13;95.12;100144.38;6243121;22;45288;-80
2021/12/25 09:06:29;;;;;;;;;24.33;23.33;;;;;6.98;94.51;100109.25;6242899;22;45332;-72
2021/12/25 09:08:55;;;;;;;;;23.33;20.33;;;;;7.08;93.98;100126.28;6242726;22;45487;-72
2021/12/25 09:11:21;;;;;;;;;22.00;22.00;;;;;7.11;94.73;100128.78;6242185;22;45405;-72
2021/12/25 09:13:48;;;;;;;;;25.00;22.67;;;;;7.20;95.23;100136.25;6242845;22;45213;-73
2021/12/25 09:16:14;;;;;;;;;21.33;20.33;;;;;7.32;93.92;100150.63;6215052;22;45877;-73
2021/12/25 09:18:39;;;;;;;;;24.00;20.33;;;;;7.33;93.43;100154.06;6243313;22;45142;-73
2021/12/25 09:21:04;;;;;;;;;20.33;19.67;;;;;7.12;92.95;100114.81;6242559;22;45443;-73
2021/12/25 09:23:30;;;;;;;;;22.67;20.67;;;;;7.33;93.11;100154.91;6215074;22;48063;-73
2021/12/25 09:25:55;;;;;;;;;25.00;23.00;;;;;7.37;93.30;100158.25;6242473;22;45368;-74
2021/12/25 09:28:21;;;;;;;;;37.25;35.00;;;;;6.79;92.88;100064.78;6243072;22;45343;-76
2021/12/25 09:30:46;;;;;;;;;15.67;13.67;;;;;7.41;92.08;100165.91;6242154;22;45205;-73
2021/12/25 09:33:12;;;;;;;;;18.33;18.33;;;;;7.11;92.62;100122.72;6242801;22;45289;-73
2021/12/25 09:35:37;;;;;;;;;26.67;20.67;;;;;7.42;90.88;100185.88;6242934;22;45311;-81
2021/12/25 09:38:04;;;;;;;;;19.33;19.33;;;;;7.02;90.52;100121.31;6241458;22;45272;-73
2021/12/25 09:40:29;;;;;;;;;25.00;20.00;;;;;7.02;90.88;100122.16;6242395;22;45336;-72
2021/12/25 09:42:55;;;;;;;;;24.33;20.67;;;;;7.18;89.85;100153.72;6214600;22;45444;-72
2021/12/25 09:45:22;;;;;;;;;22.67;18.67;;;;;7.39;91.36;100186.00;6241654;22;45270;-73
2021/12/25 09:47:48;;;;;;;;;15.67;10.67;;;;;7.38;90.51;100199.97;6242657;22;45279;-74
2021/12/25 09:50:14;;;;;;;;;26.67;22.67;;;;;7.37;91.28;100200.88;6242734;22;45316;-73
2021/12/25 09:52:40;;;;;;;;;26.33;20.33;;;;;7.07;90.46;100170.69;6242769;22;46069;-73
2021/12/25 09:55:07;;;;;;;;;24.00;21.67;;;;;7.17;91.00;100182.50;6243197;22;45333;-73
2021/12/25 09:57:32;;;;;;;;;22.00;16.33;;;;;7.34;90.88;100205.38;6242900;22;45279;-73
2021/12/25 09:59:58;;;;;;;;;19.67;19.67;;;;;7.34;91.76;100208.81;6215448;22;45457;-73
2021/12/25 10:02:23;;;;;;;;;23.00;20.00;;;;;7.35;91.17;100209.66;6243071;22;45920;-72
2021/12/25 10:04:55;;;;;;;;;24.67;22.67;;;;;7.35;90.59;100214.88;6242128;22;45427;-72
2021/12/25 10:07:29;;;;;;;;;18.67;17.67;;;;;7.32;89.75;100214.97;6243228;22;45319;-78
2021/12/25 10:10:03;;;;;;;;;24.00;19.33;;;;;7.21;89.46;100211.03;6243234;22;45280;-81
2021/12/25 10:12:41;;;;;;;;;19.33;19.33;;;;;7.22;89.78;100217.94;6215832;22;46761;-81
2021/12/25 10:15:10;;;;;;;;;21.67;19.33;;;;;7.21;90.15;100215.38;6243913;22;45387;-79
2021/12/25 10:17:44;;;;;;;;;22.67;22.67;;;;;7.15;89.85;100218.22;6243624;22;45181;-81
2021/12/25 10:20:13;;;;;;;;;21.33;18.00;;;;;7.14;90.87;100212.16;6215953;22;45389;-79
2021/12/25 10:23:00;;;;;;;;;20.00;16.00;;;;;7.16;91.03;100223.38;6244324;22;45241;-84
2021/12/25 10:25:34;;;;;;;;;24.67;20.33;;;;;7.14;89.22;100232.16;6245275;22;45311;-82
2021/12/25 10:28:03;;;;;;;;;23.33;20.67;;;;;6.89;90.07;100195.66;6245038;22;45267;-81
2021/12/25 10:30:30;;;;;;;;;30.33;22.67;;;;;6.77;90.28;100170.84;6247663;22;45198;-81
2021/12/25 10:32:56;;;;;;;;;22.33;19.33;;;;;6.94;89.05;100215.47;6255239;22;45242;-80
2021/12/25 10:35:25;;;;;;;;;26.67;20.33;;;;;6.82;88.83;100192.41;6258526;22;45221;-81
2021/12/25 10:37:52;;;;;;;;;15.67;13.33;;;;;7.06;88.07;100226.38;6251313;22;45332;-81
2021/12/25 10:40:36;;;;;;;;;22.33;19.33;;;;;7.01;88.47;100226.53;6244650;22;45332;-81
2021/12/25 10:43:03;;;;;;;;;22.67;20.33;;;;;7.01;89.13;100222.16;6243106;22;47145;-81
2021/12/25 10:45:31;;;;;;;;;23.33;21.00;;;;;6.79;88.40;100197.75;6244014;22;45395;-82
2021/12/25 10:48:06;;;;;;;;;19.00;18.00;;;;;6.95;89.65;100214.56;6217970;22;45234;-82
2021/12/25 10:50:42;;;;;;;;;21.00;18.00;;;;;7.03;88.02;100225.59;6219075;22;45324;-80
2021/12/25 10:53:29;;;;;;;;;23.33;19.67;;;;;7.07;88.11;100230.69;6249497;22;45152;-80
2021/12/25 10:56:12;;;;;;;;;17.67;16.33;;;;;6.81;88.03;100180.28;6249521;22;45272;-82
2021/12/25 10:58:39;;;;;;;;;18.33;17.00;;;;;7.17;88.20;100234.66;6245129;22;45161;-82
2021/12/25 11:01:07;;;;;;;;;18.00;15.67;;;;;7.12;86.35;100216.56;6244263;22;45265;-81
2021/12/25 11:03:36;;;;;;;;;23.33;20.33;;;;;7.16;87.65;100217.28;6215650;22;47103;-82
2021/12/25 11:06:07;;;;;;;;;22.33;18.33;;;;;7.35;87.16;100227.94;6243063;22;45603;-82
2021/12/25 11:08:34;;;;;;;;;22.33;20.00;;;;;7.47;86.51;100216.19;6243689;22;45391;-81
2021/12/25 11:11:16;;;;;;;;;17.00;16.33;;;;;7.50;87.23;100216.09;6242913;22;45335;-83
2021/12/25 11:13:50;;;;;;;;;17.00;13.67;;;;;7.47;85.87;100221.41;6242705;22;45320;-82
2021/12/25 11:16:28;;;;;;;;;17.67;14.67;;;;;7.40;86.35;100195.53;6243196;22;45497;-81
2021/12/25 11:19:09;;;;;;;;;19.33;14.33;;;;;7.52;86.44;100212.50;6243331;22;45328;-81
2021/12/25 11:21:58;;;;;;;;;17.00;17.00;;;;;7.57;85.53;100210.56;6243703;22;45416;-80
2021/12/25 11:24:24;;;;;;;;;19.67;16.00;;;;;7.60;85.05;100213.06;6216818;22;46085;-79
2021/12/25 11:26:56;;;;;;;;;16.33;16.33;;;;;7.61;84.67;100203.47;6244099;22;45260;-81
2021/12/25 11:29:25;;;;;;;;;14.67;12.00;;;;;7.34;83.52;100168.81;6243203;22;45382;-79
2021/12/25 11:31:52;;;;;;;;;18.00;15.00;;;;;7.42;83.68;100201.53;6242525;22;45289;-80
2021/12/25 11:34:19;;;;;;;;;19.33;18.67;;;;;7.34;85.49;100205.38;6242812;22;45258;-81
2021/12/25 11:36:48;;;;;;;;;19.00;16.67;;;;;7.32;86.49;100212.38;6242986;22;45334;-82
2021/12/25 11:39:15;;;;;;;;;19.33;18.33;;;;;7.09;86.31;100182.78;6214950;22;45363;-81
2021/12/25 11:41:42;;;;;;;;;17.00;15.67;;;;;7.26;85.67;100207.41;6241420;22;45316;-80
2021/12/25 11:44:29;;;;;;;;;17.67;16.33;;;;;7.29;87.00;100208.13;6242335;22;45357;-82
2021/12/25 11:46:55;;;;;;;;;22.67;18.33;;;;;7.19;85.05;100209.38;6242848;22;45316;-81
2021/12/25 11:49:21;;;;;;;;;18.67;15.33;;;;;6.93;85.73;100165.94;6242009;22;45384;-82
2021/12/25 11:51:47;;;;;;;;;20.33;16.00;;;;;7.15;85.25;100211.25;6243262;22;45316;-81
2021/12/25 11:55:16;;;;;;;;;20.00;17.00;;;;;7.09;86.04;100190.59;6242717;22;46050;-81
2021/12/25 11:59:49;;;;;;;;;19.67;17.33;;;;;7.16;86.07;100212.94;6241865;22;45458;-82
2021/12/25 12:02:41;;;;;;;;;18.67;15.67;;;;;7.17;86.53;100198.97;6243554;22;45344;-81
2021/12/25 12:05:26;;;;;;;;;22.67;20.33;;;;;7.13;85.71;100200.00;6242766;22;46602;-80
2021/12/25 12:08:03;;;;;;;;;21.67;18.33;;;;;7.15;86.42;100195.59;6243368;22;45296;-80
2021/12/25 12:10:45;;;;;;;;;15.00;13.00;;;;;7.13;85.88;100192.19;6242933;22;45300;-81
2021/12/25 12:13:22;;;;;;;;;18.00;18.00;;;;;7.11;86.16;100188.78;6244221;22;45292;-82
2021/12/25 12:15:50;;;;;;;;;22.67;20.33;;;;;6.98;83.35;100185.78;6244208;22;46146;-81
2021/12/25 12:18:29;;;;;;;;;23.67;20.67;;;;;7.04;85.19;100198.59;6215989;22;45386;-78
2021/12/25 12:21:12;;;;;;;;;24.00;20.00;;;;;6.63;86.53;100122.69;6243648;22;45276;-83
2021/12/25 12:24:10;;;;;;;;;24.00;19.33;;;;;7.01;85.38;100183.03;6215871;22;45310;-82
2021/12/25 12:26:44;;;;;;;;;18.67;17.33;;;;;7.12;84.35;100197.44;6243755;22;45291;-80
2021/12/25 12:29:11;;;;;;;;;19.00;19.00;;;;;7.00;85.79;100183.09;6242942;22;45384;-79
2021/12/25 12:31:44;;;;;;;;;23.67;18.33;;;;;7.10;85.89;100194.91;6242988;22;45371;-71
2021/12/25 12:34:42;;;;;;;;;22.67;19.00;;;;;7.17;85.75;100183.31;6242772;22;45277;-72
2021/12/25 12:37:13;;;;;;;;;26.00;22.00;;;;;7.36;85.58;100183.50;6097524;23;46199;-73
2021/12/25 12:39:42;;;;;;;;;26.00;22.33;;;;;7.87;81.88;100175.47;6118293;23;45323;-73
2021/12/25 12:42:12;;;;;;;;;25.00;19.00;;;;;8.44;81.68;100173.19;6118541;23;45497;-73
2021/12/25 12:44:38;;;;;;;;;21.00;15.00;;;;;-144.69;100.00;61360.22;6117678;23;45242;-71